createdAt,value
2023-03-21T00:01:29.437Z,101182.44
2023-03-21T00:03:55.845Z,101192.44
2023-03-21T00:06:22.864Z,101183.06
2023-03-21T00:08:49.336Z,101184.44
2023-03-21T00:11:15.689Z,101178.69
2023-03-21T00:13:44.950Z,101180.09
2023-03-21T00:16:16.364Z,101185.84
2023-03-21T00:18:47.258Z,101181.47
2023-03-21T00:21:40.696Z,101171.38
2023-03-21T00:24:01.991Z,101172.84
2023-03-21T00:26:28.359Z,101179.97
2023-03-21T00:28:54.696Z,101175.72
2023-03-21T00:31:21.016Z,101165.63
2023-03-21T00:33:49.292Z,101167.72
2023-03-21T00:36:15.975Z,101171.25
2023-03-21T00:38:42.409Z,101165.50
2023-03-21T00:41:19.248Z,101172.63
2023-03-21T00:43:51.966Z,101169.00
2023-03-21T00:46:18.656Z,101167.63
2023-03-21T00:48:45.152Z,101158.25
2023-03-21T00:51:13.336Z,101163.25
2023-03-21T00:53:39.682Z,101160.38
2023-03-21T00:56:06.025Z,101166.13
2023-03-21T00:58:32.352Z,101158.88
2023-03-21T01:00:58.766Z,101156.00
2023-03-21T01:03:26.565Z,101153.75
2023-03-21T01:06:05.424Z,101160.25
2023-03-21T01:08:44.564Z,101151.63
2023-03-21T01:11:17.691Z,101158.03
2023-03-21T01:13:54.366Z,101160.91
2023-03-21T01:16:24.534Z,101158.03
2023-03-21T01:18:50.917Z,101150.78
2023-03-21T01:21:17.259Z,101153.66
2023-03-21T01:23:43.598Z,101155.78
2023-03-21T01:26:10.250Z,101153.66
2023-03-21T01:28:36.837Z,101155.03
2023-03-21T01:31:03.453Z,101155.78
2023-03-21T01:33:30.187Z,101149.28
2023-03-21T01:36:06.510Z,101146.41
2023-03-21T01:38:38.349Z,101149.91
2023-03-21T01:41:17.107Z,101153.53
2023-03-21T01:43:45.891Z,101152.06
2023-03-21T01:46:12.278Z,101147.78
2023-03-21T01:49:12.293Z,101142.03
2023-03-21T01:51:50.238Z,101146.31
2023-03-21T01:54:21.006Z,101144.06
2023-03-21T01:56:47.887Z,101143.22
2023-03-21T01:59:21.591Z,101151.09
2023-03-21T02:02:07.267Z,101148.84
2023-03-21T02:04:38.237Z,101151.72
2023-03-21T02:07:14.397Z,101154.59
2023-03-21T02:09:46.758Z,101150.97
2023-03-21T02:12:16.400Z,101147.38
2023-03-21T02:14:43.976Z,101141.63
2023-03-21T02:17:27.217Z,101135.88
2023-03-21T02:20:08.675Z,101135.88
2023-03-21T02:22:53.950Z,101140.13
2023-03-21T02:25:39.509Z,101139.38
2023-03-21T02:28:09.212Z,101128.63
2023-03-21T02:30:51.929Z,101127.16
2023-03-21T02:33:35.432Z,101128.63
2023-03-21T02:36:11.917Z,101131.50
2023-03-21T02:38:47.669Z,101124.16
2023-03-21T02:52:45.709Z,101137.13
2023-03-21T02:55:15.391Z,101134.91
2023-03-21T02:57:56.709Z,101134.16
2023-03-21T03:00:27.335Z,101134.91
2023-03-21T03:03:08.064Z,101134.91
2023-03-21T03:05:37.140Z,101139.88
2023-03-21T03:08:09.491Z,101134.16
2023-03-21T03:10:51.296Z,101137.00
2023-03-21T03:13:24.320Z,101142.69
2023-03-21T03:15:57.116Z,101142.69
2023-03-21T03:18:33.477Z,101144.16
2023-03-21T03:21:29.048Z,101126.81
2023-03-21T03:24:07.045Z,101135.41
2023-03-21T03:26:34.279Z,101135.41
2023-03-21T03:29:05.215Z,101133.19
2023-03-21T03:31:38.032Z,101123.81
2023-03-21T03:34:07.028Z,101138.19
2023-03-21T03:36:39.265Z,101139.69
2023-03-21T03:39:13.141Z,101137.56
2023-03-21T03:42:07.800Z,101131.94
2023-03-21T03:44:38.122Z,101132.66
2023-03-21T03:47:15.214Z,101135.66
2023-03-21T03:49:48.351Z,101131.50
2023-03-21T03:52:26.447Z,101124.50
2023-03-21T03:54:59.439Z,101133.84
2023-03-21T03:57:26.225Z,101137.56
2023-03-21T03:59:53.620Z,101138.31
2023-03-21T04:02:43.144Z,101133.31
2023-03-21T04:05:09.824Z,101121.81
2023-03-21T04:07:36.151Z,101134.06
2023-03-21T04:10:02.692Z,101131.22
2023-03-21T04:12:31.501Z,101135.56
2023-03-21T04:15:17.160Z,101127.69
2023-03-21T04:17:48.275Z,101120.56
2023-03-21T04:20:23.607Z,101121.41
2023-03-21T04:22:56.625Z,101124.28
2023-03-21T04:25:32.719Z,101125.16
2023-03-21T04:27:59.639Z,101118.66
2023-03-21T04:30:35.442Z,101121.53
2023-03-21T04:33:07.656Z,101120.16
2023-03-21T04:35:37.648Z,101118.66
2023-03-21T04:38:05.068Z,101123.63
2023-03-21T04:40:31.626Z,101123.63
2023-03-21T04:42:58.024Z,101123.63
2023-03-21T04:45:24.355Z,101117.16
2023-03-21T04:47:50.896Z,101133.78
2023-03-21T04:50:17.320Z,101128.03
2023-03-21T04:52:43.732Z,101123.78
2023-03-21T04:55:10.100Z,101128.16
2023-03-21T04:57:38.328Z,101128.25
2023-03-21T05:00:09.436Z,101124.00
2023-03-21T05:02:36.476Z,101128.38
2023-03-21T05:05:02.823Z,101118.25
2023-03-21T05:07:31.219Z,101124.00
2023-03-21T05:09:57.559Z,101121.13
2023-03-21T05:12:23.968Z,101115.38
2023-03-21T05:14:50.355Z,101116.00
2023-03-21T05:17:23.041Z,101119.00
2023-03-21T05:19:52.685Z,101119.75
2023-03-21T05:22:19.447Z,101109.75
2023-03-21T05:24:50.174Z,101121.97
2023-03-21T05:27:36.932Z,101122.72
2023-03-21T05:30:10.973Z,101119.22
2023-03-21T05:33:02.245Z,101119.94
2023-03-21T05:35:29.162Z,101113.47
2023-03-21T05:37:58.350Z,101113.47
2023-03-21T05:40:27.365Z,101114.19
2023-03-21T05:42:56.884Z,101119.94
2023-03-21T05:45:24.436Z,101125.69
2023-03-21T05:47:51.591Z,101122.09
2023-03-21T05:50:19.792Z,101122.72
2023-03-21T05:52:58.743Z,101120.59
2023-03-21T05:55:25.184Z,101124.22
2023-03-21T05:57:52.293Z,101122.81
2023-03-21T06:00:24.716Z,101121.44
2023-03-21T06:03:07.726Z,101125.81
2023-03-21T06:06:07.673Z,101125.81
2023-03-21T06:08:38.917Z,101128.78
2023-03-21T06:11:17.628Z,101124.44
2023-03-21T06:13:44.159Z,101125.19
2023-03-21T06:16:10.567Z,101131.66
2023-03-21T06:18:37.796Z,101133.06
2023-03-21T06:21:33.171Z,101137.31
2023-03-21T06:23:59.502Z,101134.44
2023-03-21T06:26:25.855Z,101132.31
2023-03-21T06:28:53.648Z,101134.44
2023-03-21T06:31:23.213Z,101130.19
2023-03-21T06:33:51.597Z,101139.66
2023-03-21T06:36:18.067Z,101141.78
2023-03-21T06:38:44.426Z,101134.66
2023-03-21T06:41:11.207Z,101134.03
2023-03-21T06:43:42.939Z,101134.75
2023-03-21T06:46:09.270Z,101126.13
2023-03-21T06:48:37.449Z,101134.66
2023-03-21T06:51:04.841Z,101129.97
2023-03-21T06:53:35.096Z,101139.19
2023-03-21T06:56:24.887Z,101137.81
2023-03-21T06:58:51.548Z,101134.72
2023-03-21T07:01:34.798Z,101137.44
2023-03-21T07:04:06.252Z,101142.88
2023-03-21T07:06:32.818Z,101137.91
2023-03-21T07:08:59.245Z,101146.72
2023-03-21T07:11:25.612Z,101140.47
2023-03-21T07:13:52.029Z,101145.22
2023-03-21T07:16:18.453Z,101139.81
2023-03-21T07:18:45.380Z,101144.03
2023-03-21T07:21:11.853Z,101151.47
2023-03-21T07:23:39.424Z,101142.88
2023-03-21T07:26:05.920Z,101151.38
2023-03-21T07:28:32.334Z,101146.25
2023-03-21T07:30:59.224Z,101148.94
2023-03-21T07:33:25.558Z,101145.63
2023-03-21T07:35:54.031Z,101152.53
2023-03-21T07:38:21.155Z,101152.34
2023-03-21T07:40:48.145Z,101156.38
2023-03-21T07:43:14.734Z,101152.13
2023-03-21T07:45:43.541Z,101150.63
2023-03-21T07:48:10.371Z,101150.41
2023-03-21T07:50:36.796Z,101153.91
2023-03-21T07:53:03.131Z,101153.22
2023-03-21T07:55:29.628Z,101153.53
2023-03-21T07:57:55.967Z,101153.03
2023-03-21T08:00:25.268Z,101150.00
2023-03-21T08:02:57.936Z,101140.47
2023-03-21T08:05:26.010Z,101144.38
2023-03-21T08:07:52.388Z,101142.94
2023-03-21T08:10:18.721Z,101146.25
2023-03-21T08:12:45.261Z,101149.44
2023-03-21T08:15:12.546Z,101145.44
2023-03-21T08:17:39.879Z,101147.13
2023-03-21T08:20:08.216Z,101144.50
2023-03-21T08:22:35.000Z,101145.34
2023-03-21T08:25:01.410Z,101149.06
2023-03-21T08:27:27.743Z,101147.78
2023-03-21T08:29:54.065Z,101147.91
2023-03-21T08:32:20.446Z,101147.91
2023-03-21T08:34:46.805Z,101135.59
2023-03-21T08:37:13.170Z,101136.16
2023-03-21T08:39:39.654Z,101146.69
2023-03-21T08:42:06.022Z,101143.69
2023-03-21T08:44:32.344Z,101146.34
2023-03-21T08:46:58.683Z,101151.78
2023-03-21T08:49:26.072Z,101148.78
2023-03-21T08:51:55.339Z,101147.22
2023-03-21T08:54:21.720Z,101149.75
2023-03-21T08:56:48.049Z,101141.13
2023-03-21T08:59:14.516Z,101142.94
2023-03-21T09:01:41.170Z,101145.16
2023-03-21T09:04:10.717Z,101142.25
2023-03-21T09:06:37.523Z,101135.66
2023-03-21T09:09:05.874Z,101138.19
2023-03-21T09:11:32.197Z,101134.63
2023-03-21T09:13:58.540Z,101137.22
2023-03-21T09:16:25.021Z,101137.44
2023-03-21T09:18:55.732Z,101142.66
2023-03-21T09:21:22.819Z,101144.91
2023-03-21T09:23:52.576Z,101143.19
2023-03-21T09:26:19.234Z,101147.38
2023-03-21T09:28:46.281Z,101151.31
2023-03-21T09:31:12.856Z,101153.13
2023-03-21T09:33:40.673Z,101162.38
2023-03-21T09:36:11.758Z,101147.19
2023-03-21T09:38:39.501Z,101142.84
2023-03-21T09:41:08.866Z,101151.13
2023-03-21T09:43:35.470Z,101143.34
2023-03-21T09:46:04.798Z,101143.00
2023-03-21T09:48:37.675Z,101140.31
2023-03-21T09:51:06.143Z,101129.28
2023-03-21T09:53:33.354Z,101130.41
2023-03-21T09:56:00.116Z,101136.66
2023-03-21T09:58:28.204Z,101138.97
2023-03-21T10:01:22.201Z,101133.72
2023-03-21T10:03:50.334Z,101133.94
2023-03-21T10:06:16.786Z,101128.31
2023-03-21T10:08:44.996Z,101124.13
2023-03-21T10:11:27.996Z,101117.06
2023-03-21T10:13:58.736Z,101115.75
2023-03-21T10:16:27.480Z,101115.88
2023-03-21T10:18:54.025Z,101103.47
2023-03-21T10:21:51.510Z,101103.47
2023-03-21T10:24:20.624Z,101111.25
2023-03-21T10:26:46.955Z,101105.06
2023-03-21T10:29:13.935Z,101092.75
2023-03-21T10:31:40.381Z,101098.81
2023-03-21T10:34:09.899Z,101092.13
2023-03-21T10:36:36.324Z,101092.31
2023-03-21T10:39:04.631Z,101091.97
2023-03-21T10:41:31.267Z,101094.34
2023-03-21T10:44:04.344Z,101089.13
2023-03-21T10:46:32.129Z,101094.69
2023-03-21T10:48:59.854Z,101093.56
2023-03-21T10:51:27.352Z,101095.06
2023-03-21T10:53:54.661Z,101103.63
2023-03-21T10:56:23.129Z,101094.88
2023-03-21T10:58:49.451Z,101094.47
2023-03-21T11:01:22.014Z,101092.78
2023-03-21T11:03:48.432Z,101090.75
2023-03-21T11:06:22.707Z,101091.88
2023-03-21T11:08:49.808Z,101085.44
2023-03-21T11:11:20.433Z,101086.94
2023-03-21T11:13:47.145Z,101084.44
2023-03-21T11:16:23.063Z,101085.44
2023-03-21T11:18:50.222Z,101083.22
2023-03-21T11:21:16.895Z,101073.38
2023-03-21T11:23:47.939Z,101076.31
2023-03-21T11:26:19.953Z,101070.22
2023-03-21T11:28:46.283Z,101066.59
2023-03-21T11:31:12.760Z,101058.53
2023-03-21T11:33:40.582Z,101063.06
2023-03-21T11:36:25.007Z,101048.47
2023-03-21T11:38:52.291Z,101051.66
2023-03-21T11:41:25.710Z,101045.88
2023-03-21T11:43:52.232Z,101051.09
2023-03-21T11:46:22.480Z,101044.19
2023-03-21T11:48:48.919Z,101043.50
2023-03-21T11:51:21.610Z,101046.63
2023-03-21T11:53:49.330Z,101038.44
2023-03-21T11:56:20.586Z,101035.03
2023-03-21T11:59:06.796Z,101038.44
2023-03-21T12:01:52.253Z,101034.38
2023-03-21T12:04:31.814Z,101032.50
2023-03-21T12:07:13.534Z,101034.47
2023-03-21T12:09:52.840Z,101028.22
2023-03-21T12:12:39.243Z,101031.94
2023-03-21T12:15:25.784Z,101025.53
2023-03-21T12:18:01.169Z,101015.59
2023-03-21T12:20:37.436Z,101010.22
2023-03-21T12:23:08.545Z,101012.06
2023-03-21T12:25:56.281Z,101006.13
2023-03-21T12:28:32.648Z,101006.78
2023-03-21T12:31:05.864Z,100995.34
2023-03-21T12:33:41.909Z,100992.47
2023-03-21T12:36:27.164Z,100993.47
2023-03-21T12:39:12.411Z,100986.59
2023-03-21T12:41:38.653Z,100987.09
2023-03-21T12:44:09.648Z,100982.53
2023-03-21T12:46:39.992Z,100974.88
2023-03-21T12:49:21.994Z,100985.69
2023-03-21T12:51:48.638Z,100973.50
2023-03-21T12:54:17.588Z,100987.63
2023-03-21T12:56:46.829Z,100976.59
2023-03-21T12:59:16.188Z,100979.47
2023-03-21T13:01:42.920Z,100975.41
2023-03-21T13:04:28.294Z,100967.34
2023-03-21T13:06:54.630Z,100966.69
2023-03-21T13:09:36.813Z,100968.06
2023-03-21T13:12:07.774Z,100960.81
2023-03-21T13:14:35.602Z,100956.47
2023-03-21T13:17:06.749Z,100962.03
2023-03-21T13:19:37.988Z,100955.63
2023-03-21T13:22:12.266Z,100950.53
2023-03-21T13:24:39.557Z,100951.69
2023-03-21T13:27:07.006Z,100938.59
2023-03-21T13:29:34.557Z,100929.97
2023-03-21T13:32:07.137Z,100946.31
2023-03-21T13:34:34.319Z,100945.22
2023-03-21T13:37:00.710Z,100942.59
2023-03-21T13:39:27.797Z,100928.13
2023-03-21T13:41:54.662Z,100937.22
2023-03-21T13:44:25.713Z,100935.53
2023-03-21T13:46:56.296Z,100933.63
2023-03-21T13:49:26.659Z,100929.56
2023-03-21T13:51:53.495Z,100925.75
2023-03-21T13:54:21.728Z,100925.09
2023-03-21T13:56:51.756Z,100920.94
2023-03-21T13:59:36.429Z,100927.28
2023-03-21T14:02:11.864Z,100923.13
2023-03-21T14:04:43.283Z,100913.97
2023-03-21T14:07:21.722Z,100924.16
2023-03-21T14:09:48.966Z,100913.19
2023-03-21T14:12:19.217Z,100912.84
2023-03-21T14:14:46.414Z,100916.94
2023-03-21T14:17:21.962Z,100919.19
2023-03-21T14:19:50.921Z,100899.50
2023-03-21T14:22:17.322Z,100904.63
2023-03-21T14:24:59.268Z,100906.00
2023-03-21T14:27:25.988Z,100904.00
2023-03-21T14:29:53.343Z,100907.69
2023-03-21T14:32:21.539Z,100903.84
2023-03-21T14:34:48.819Z,100898.34
2023-03-21T14:37:34.426Z,100899.06
2023-03-21T14:40:01.345Z,100886.25
2023-03-21T14:42:27.748Z,100889.53
2023-03-21T14:44:56.572Z,100888.72
2023-03-21T14:47:24.036Z,100884.59
2023-03-21T14:49:50.388Z,100887.31
2023-03-21T14:52:18.289Z,100868.31
2023-03-21T14:54:45.320Z,100875.31
2023-03-21T14:57:12.203Z,100869.81
2023-03-21T14:59:38.797Z,100870.19
2023-03-21T15:02:06.296Z,100865.19
2023-03-21T15:04:32.924Z,100858.66
2023-03-21T15:07:01.680Z,100868.06
2023-03-21T15:09:30.057Z,100860.66
2023-03-21T15:11:56.635Z,100862.31
2023-03-21T15:14:27.107Z,100851.13
2023-03-21T15:16:53.832Z,100858.38
2023-03-21T15:19:23.202Z,100856.56
2023-03-21T15:21:51.065Z,100852.66
2023-03-21T15:24:18.348Z,100850.44
2023-03-21T15:26:45.989Z,100849.69
2023-03-21T15:29:12.318Z,100844.75
2023-03-21T15:31:39.093Z,100831.09
2023-03-21T15:34:05.443Z,100849.13
2023-03-21T15:36:37.535Z,100840.75
2023-03-21T15:39:04.192Z,100841.66
2023-03-21T15:41:31.045Z,100835.16
2023-03-21T15:44:09.513Z,100840.91
2023-03-21T15:46:42.520Z,100840.84
2023-03-21T15:49:14.600Z,100830.13
2023-03-21T15:51:41.399Z,100816.72
2023-03-21T15:54:12.879Z,100818.78
2023-03-21T15:56:42.251Z,100816.38
2023-03-21T15:59:12.748Z,100818.56
2023-03-21T16:01:39.256Z,100814.88
2023-03-21T16:04:06.989Z,100807.06
2023-03-21T16:06:33.676Z,100802.84
2023-03-21T16:09:09.044Z,100806.50
2023-03-21T16:11:39.554Z,100800.03
2023-03-21T16:14:05.896Z,100797.25
2023-03-21T16:16:32.257Z,100800.56
2023-03-21T16:18:58.844Z,100804.59
2023-03-21T16:21:26.588Z,100808.78
2023-03-21T16:23:52.934Z,100799.41
2023-03-21T16:26:20.862Z,100811.75
2023-03-21T16:28:47.183Z,100811.09
2023-03-21T16:31:14.154Z,100805.91
2023-03-21T16:33:40.488Z,100813.41
2023-03-21T16:36:09.941Z,100809.50
2023-03-21T16:38:36.262Z,100811.00
2023-03-21T17:04:03.463Z,100807.31
2023-03-21T17:06:30.188Z,100798.19
2023-03-21T17:08:56.806Z,100796.38
2023-03-21T17:11:23.469Z,100796.56
2023-03-21T17:13:50.471Z,100799.50
2023-03-21T17:16:20.793Z,100787.72
2023-03-21T17:18:47.172Z,100792.94
2023-03-21T17:21:14.631Z,100790.94
2023-03-21T17:23:40.990Z,100794.44
2023-03-21T17:26:10.624Z,100796.13
2023-03-21T17:28:37.252Z,100792.03
2023-03-21T17:31:04.279Z,100788.41
2023-03-21T17:33:31.076Z,100791.72
2023-03-21T17:35:57.447Z,100782.69
2023-03-21T17:38:23.810Z,100785.00
2023-03-21T17:40:50.629Z,100780.38
2023-03-21T17:43:17.616Z,100781.75
2023-03-21T17:45:44.264Z,100772.41
2023-03-21T17:48:10.726Z,100777.41
2023-03-21T17:50:39.152Z,100778.69
2023-03-21T17:53:05.940Z,100773.72
2023-03-21T17:55:32.352Z,100781.56
2023-03-21T17:57:58.727Z,100778.59
2023-03-21T18:00:26.012Z,100785.00
2023-03-21T18:02:52.408Z,100782.03
2023-03-21T18:05:19.059Z,100779.78
2023-03-21T18:08:08.857Z,100778.31
2023-03-21T18:10:31.742Z,100781.13
2023-03-21T18:12:58.913Z,100779.53
2023-03-21T18:15:25.393Z,100782.50
2023-03-21T18:17:51.724Z,100786.50
2023-03-21T18:20:19.905Z,100777.31
2023-03-21T18:22:46.410Z,100781.59
2023-03-21T18:25:12.806Z,100784.16
2023-03-21T18:28:02.100Z,100796.59
2023-03-21T18:30:45.071Z,100790.72
2023-03-21T18:33:12.306Z,100791.66
2023-03-21T18:35:38.710Z,100790.91
2023-03-21T18:38:06.608Z,100799.44
2023-03-21T18:40:32.935Z,100793.47
2023-03-21T18:43:49.988Z,100792.47
2023-03-21T18:45:45.592Z,100788.34
2023-03-21T18:48:13.352Z,100788.81
2023-03-21T18:50:40.587Z,100782.22
2023-03-21T18:53:07.479Z,100789.09
2023-03-21T18:55:45.380Z,100786.84
2023-03-21T18:58:13.182Z,100795.47
2023-03-21T19:00:39.859Z,100796.09
2023-03-21T19:03:19.266Z,100791.50
2023-03-21T19:05:57.724Z,100795.53
2023-03-21T19:08:24.144Z,100789.09
2023-03-21T19:10:51.202Z,100796.06
2023-03-21T19:13:17.575Z,100793.84
2023-03-21T19:15:43.922Z,100787.88
2023-03-21T19:21:00.824Z,100790.38
2023-03-21T19:23:39.825Z,100784.16
2023-03-21T19:26:13.557Z,100783.34
2023-03-21T19:28:39.886Z,100789.84
2023-03-21T19:31:06.676Z,100789.09
2023-03-21T19:33:33.201Z,100789.94
2023-03-21T19:36:13.005Z,100789.94
2023-03-21T19:38:44.137Z,100781.28
2023-03-21T19:41:10.521Z,100783.50
2023-03-21T19:43:36.874Z,100786.13
2023-03-21T19:46:03.236Z,100783.16
2023-03-21T19:48:29.636Z,100783.16
2023-03-21T19:53:42.758Z,100784.63
2023-03-21T19:56:21.201Z,100786.69
2023-03-21T19:58:49.419Z,100781.84
2023-03-21T20:01:15.816Z,100774.63
2023-03-21T20:03:44.103Z,100784.44
2023-03-21T20:06:11.529Z,100779.44
2023-03-21T20:09:05.402Z,100779.44
2023-03-21T20:11:24.192Z,100777.94
2023-03-21T20:13:50.559Z,100777.94
2023-03-21T20:16:20.357Z,100789.47
2023-03-21T20:18:46.950Z,100786.50
2023-03-21T20:21:17.890Z,100777.75
2023-03-21T20:23:49.056Z,100785.00
2023-03-21T20:26:16.247Z,100787.78
2023-03-21T20:28:55.942Z,100788.44
2023-03-21T20:31:29.098Z,100790.66
2023-03-21T20:33:55.575Z,100791.97
2023-03-21T20:36:40.516Z,100786.88
2023-03-21T20:39:07.591Z,100784.63
2023-03-21T20:41:33.967Z,100787.41
2023-03-21T20:46:49.530Z,100780.19
2023-03-21T20:49:15.899Z,100767.22
2023-03-21T20:54:29.569Z,100751.34
2023-03-21T20:56:56.691Z,100746.25
2023-03-21T20:59:27.151Z,100751.25
2023-03-21T21:01:54.783Z,100755.53
2023-03-21T21:04:22.424Z,100762.66
2023-03-21T21:06:49.354Z,100758.31
2023-03-21T21:09:15.942Z,100750.41
2023-03-21T21:14:28.677Z,100758.94
2023-03-21T21:16:55.053Z,100766.09
2023-03-21T21:19:21.612Z,100762.47
2023-03-21T21:21:48.006Z,100765.34
2023-03-21T21:24:14.749Z,100760.25
2023-03-21T21:26:46.106Z,100755.88
2023-03-21T21:29:16.575Z,100759.53
2023-03-21T21:31:44.385Z,100752.28
2023-03-21T21:34:10.854Z,100747.94
2023-03-21T21:36:37.262Z,100748.56
2023-03-21T21:39:04.233Z,100750.72
2023-03-21T21:41:30.638Z,100744.97
2023-03-21T21:43:56.973Z,100743.47
2023-03-21T21:46:23.371Z,100740.59
2023-03-21T21:48:49.721Z,100742.72
2023-03-21T21:51:26.106Z,100735.50
2023-03-21T21:53:55.736Z,100734.75
2023-03-21T21:56:22.695Z,100727.53
2023-03-21T21:58:49.024Z,100736.16
2023-03-21T22:01:15.425Z,100737.56
2023-03-21T22:03:42.656Z,100729.56
2023-03-21T22:06:09.279Z,100735.41
2023-03-21T22:08:38.539Z,100739.13
2023-03-21T22:11:04.930Z,100734.75
2023-03-21T22:13:31.270Z,100744.13
2023-03-21T22:15:57.645Z,100739.75
2023-03-21T22:18:24.020Z,100734.75
2023-03-21T22:20:50.473Z,100738.28
2023-03-21T22:23:19.299Z,100744.56
2023-03-21T22:25:49.296Z,100738.81
2023-03-21T22:28:17.717Z,100732.25
2023-03-21T22:30:44.030Z,100735.84
2023-03-21T22:33:10.371Z,100725.75
2023-03-21T22:35:36.761Z,100718.50
2023-03-21T22:38:03.126Z,100723.63
2023-03-21T22:40:29.446Z,100732.34
2023-03-21T22:42:55.781Z,100725.75
2023-03-21T22:45:22.094Z,100727.91
2023-03-21T22:47:48.523Z,100730.00
2023-03-21T22:50:14.884Z,100735.69
2023-03-21T22:52:41.254Z,100722.69
2023-03-21T22:55:09.901Z,100722.69
2023-03-21T22:57:36.251Z,100724.84
2023-03-21T23:00:03.000Z,100725.47
2023-03-21T23:02:29.340Z,100721.22
2023-03-21T23:04:55.833Z,100723.34
2023-03-21T23:07:22.185Z,100729.75
2023-03-21T23:09:48.509Z,100715.38
2023-03-21T23:12:14.904Z,100728.25
2023-03-21T23:14:41.449Z,100726.78
2023-03-21T23:17:10.004Z,100721.78
2023-03-21T23:19:36.355Z,100721.03
2023-03-21T23:22:02.690Z,100721.78
2023-03-21T23:24:29.054Z,100713.78
2023-03-21T23:26:55.482Z,100714.56
2023-03-21T23:29:21.806Z,100708.03
2023-03-21T23:31:48.148Z,100700.81
2023-03-21T23:34:14.483Z,100701.56
2023-03-21T23:36:40.946Z,100693.59
2023-03-21T23:39:07.480Z,100696.47
2023-03-21T23:41:33.941Z,100697.13
2023-03-21T23:44:00.268Z,100694.97
2023-03-21T23:46:26.604Z,100693.50
2023-03-21T23:48:53.005Z,100699.25
2023-03-21T23:51:19.383Z,100693.50
2023-03-21T23:53:45.778Z,100701.38
2023-03-21T23:56:18.836Z,100700.63
2023-03-21T23:58:45.505Z,100699.91
